Aérodrome :
LOGIN :

S'inscrire | Disclaimer

   EN    FR    IT 

 










Légende :    VFR   VFR Marginal   IFR   IFR Intensif   IFR Très Intensif
Visi : 
Plafond : 
>= 8 km
>= 3000ft
5 à 8 km
1000 à 3000 ft
1500m à 5 km
500 à 1000 ft
800 à 1500m
200 à 500 ft
< 800m
< 200 ft
Symboles :   Orages  Brouillard  Fortes neiges  Fortes précipitations  Vent > 20 kt
SIGMETs :   Divers  Orages  Givrage  Turbulence  Onde Orograph.  Cendres Volcan.






- Altitude de l'aérodrome : 121 ft
- Code IATA : HUY


EGNJ - Humberside

DERNIER METAR :
  • 110320Z AUTO 19008KT 9999 NCD 06/05 Q1005

METARs EXPIRÉS :
  • 110250Z AUTO 18008KT 9999 NCD 06/05 Q1005
  • 110220Z AUTO 19006KT 9999 NCD 06/05 Q1005
  • 110150Z AUTO 19008KT 9999 NCD 07/06 Q1005
  • 110120Z AUTO 20009KT 9999 NCD 08/07 Q1005
  • 110050Z AUTO 20009KT 9999 NCD 09/07 Q1005

TAF TAF EGNJ
Valide du 11 à 03h jusqu'au 11 à 12h UTC


110154Z 1103/1112 18006KT 9999 SCT040
BECMG 1109/1112 12010KT
TEMPO 1109/1112 7000 SHRA
PROB30
TEMPO 1110/1112 3000 +SHRAGS BKN014 BKN025CB
ATIS : +44 1652 682 020



MET'MAP, la Météo Aéronautique d'un coup d'oeil ! - Copyright ORBIFLY Décembre 2007 - Disclaimer

ORBIFLY MET'MAP TEAM :

Programmation & Développement : Alexandra Zaïnal
Sur une idée originale de : Baudouin d'Aumeries
Assistance à la programmation : Marc-Olivier Méhu
Soutien technique & logistique : Manuel Goepfert

Contact : metmap@orbifly.com




SOURCES & CREDITS :

   NOAA